createdAt,value
2019-02-28T00:00:03.158Z,5.40
2019-02-28T00:02:31.430Z,5.30
2019-02-28T00:04:59.715Z,5.20
2019-02-28T00:07:27.991Z,5.20
2019-02-28T00:09:57.381Z,5.10
2019-02-28T00:12:24.606Z,5.10
2019-02-28T00:14:52.890Z,5.20
2019-02-28T00:17:21.182Z,5.20
2019-02-28T00:19:49.471Z,5.30
2019-02-28T00:22:19.253Z,5.10
2019-02-28T00:24:47.642Z,5.10
2019-02-28T00:27:20.975Z,5.00
2019-02-28T00:29:44.160Z,4.90
2019-02-28T00:32:13.271Z,4.80
2019-02-28T00:34:41.544Z,4.80
2019-02-28T00:37:09.935Z,4.90
2019-02-28T00:39:38.302Z,4.90
2019-02-28T00:42:06.583Z,4.90
2019-02-28T00:44:34.832Z,5.00
2019-02-28T00:47:03.942Z,5.00
2019-02-28T00:49:32.219Z,4.90
2019-02-28T00:52:01.573Z,4.90
2019-02-28T00:54:28.767Z,4.80
2019-02-28T00:56:57.047Z,4.80
2019-02-28T00:59:25.318Z,4.80
2019-02-28T01:01:53.603Z,4.90
2019-02-28T01:04:21.849Z,4.80
2019-02-28T01:06:50.120Z,4.80
2019-02-28T01:09:19.219Z,4.80
2019-02-28T01:11:47.520Z,4.70
2019-02-28T01:14:15.774Z,4.80
2019-02-28T01:16:44.074Z,4.80
2019-02-28T01:19:12.454Z,4.80
2019-02-28T01:21:40.751Z,4.70
2019-02-28T01:24:09.103Z,4.70
2019-02-28T01:26:37.498Z,4.70
2019-02-28T01:29:05.870Z,4.70
2019-02-28T01:31:34.157Z,4.70
2019-02-28T01:34:02.423Z,4.70
2019-02-28T01:36:30.700Z,4.80
2019-02-28T01:38:59.058Z,4.80
2019-02-28T01:41:27.347Z,4.90
2019-02-28T01:43:55.711Z,4.90
2019-02-28T01:46:23.987Z,4.90
2019-02-28T01:48:54.553Z,5.00
2019-02-28T01:51:20.550Z,4.90
2019-02-28T01:53:50.487Z,4.80
2019-02-28T01:56:17.195Z,4.70
2019-02-28T01:58:47.594Z,4.80
2019-02-28T02:01:13.947Z,4.80
2019-02-28T02:03:42.235Z,4.80
2019-02-28T02:06:10.499Z,4.80
2019-02-28T02:08:38.759Z,4.80
2019-02-28T02:11:07.875Z,4.70
2019-02-28T02:13:36.835Z,4.70
2019-02-28T02:16:04.529Z,4.70
2019-02-28T02:18:32.773Z,4.60
2019-02-28T02:21:01.794Z,4.50
2019-02-28T02:23:30.175Z,4.50
2019-02-28T02:25:58.445Z,4.50
2019-02-28T02:28:27.826Z,4.40
2019-02-28T02:30:54.963Z,4.40
2019-02-28T02:33:23.986Z,4.30
2019-02-28T02:35:52.259Z,4.20
2019-02-28T02:38:20.539Z,4.30
2019-02-28T02:40:48.811Z,4.20
2019-02-28T02:43:17.101Z,4.30
2019-02-28T02:45:45.360Z,4.40
2019-02-28T02:48:13.641Z,4.30
2019-02-28T02:50:41.900Z,4.40
2019-02-28T02:53:10.171Z,4.40
2019-02-28T02:55:38.439Z,4.40
2019-02-28T02:58:06.739Z,4.30
2019-02-28T03:00:34.983Z,4.40
2019-02-28T03:03:06.136Z,4.30
2019-02-28T03:05:35.951Z,4.30
2019-02-28T03:08:01.130Z,4.30
2019-02-28T03:10:28.926Z,4.40
2019-02-28T03:12:57.199Z,4.40
2019-02-28T03:15:27.176Z,4.40
2019-02-28T03:17:53.879Z,4.30
2019-02-28T03:20:22.248Z,4.30
2019-02-28T03:22:50.524Z,4.30
2019-02-28T03:25:18.821Z,4.30
2019-02-28T03:27:47.095Z,4.30
2019-02-28T03:30:28.422Z,4.30
2019-02-28T03:32:46.592Z,4.50
2019-02-28T03:35:15.592Z,4.40
2019-02-28T03:37:43.899Z,4.40
2019-02-28T03:40:13.657Z,4.30
2019-02-28T03:42:41.976Z,4.30
2019-02-28T03:45:10.932Z,4.40
2019-02-28T03:47:39.329Z,4.40
2019-02-28T03:50:07.585Z,4.40
2019-02-28T03:52:42.082Z,4.40
2019-02-28T03:55:04.742Z,4.30
2019-02-28T03:57:32.407Z,4.40
2019-02-28T04:00:00.691Z,4.50
2019-02-28T04:02:28.960Z,4.50
2019-02-28T04:04:57.244Z,4.50
2019-02-28T04:07:26.231Z,4.60
2019-02-28T04:09:54.508Z,4.50
2019-02-28T04:12:22.779Z,4.40
2019-02-28T04:14:51.054Z,4.40
2019-02-28T04:17:19.318Z,4.40
2019-02-28T04:19:47.607Z,4.40
2019-02-28T04:22:19.494Z,4.40
2019-02-28T04:24:46.344Z,4.30
2019-02-28T04:27:12.423Z,4.30
2019-02-28T04:29:40.697Z,4.30
2019-02-28T04:32:08.966Z,4.20
2019-02-28T04:34:37.371Z,4.20
2019-02-28T04:37:08.565Z,4.10
2019-02-28T04:39:34.008Z,4.20
2019-02-28T04:42:05.001Z,4.20
2019-02-28T04:44:30.553Z,4.20
2019-02-28T04:46:58.839Z,4.20
2019-02-28T04:49:27.220Z,4.20
2019-02-28T04:51:55.754Z,4.20
2019-02-28T04:54:24.625Z,4.20
2019-02-28T04:56:52.464Z,4.20
2019-02-28T04:59:20.731Z,4.20
2019-02-28T05:01:49.016Z,4.20
2019-02-28T05:04:17.379Z,4.10
2019-02-28T05:06:45.760Z,4.30
2019-02-28T05:09:14.487Z,4.20
2019-02-28T05:11:42.412Z,4.30
2019-02-28T05:14:10.691Z,4.30
2019-02-28T05:16:38.934Z,4.30
2019-02-28T05:19:07.952Z,4.20
2019-02-28T05:21:36.236Z,4.20
2019-02-28T05:24:07.679Z,4.20
2019-02-28T05:26:32.985Z,4.20
2019-02-28T05:29:01.237Z,4.20
2019-02-28T05:31:30.248Z,4.20
2019-02-28T05:37:00.592Z,4.00
2019-02-28T05:39:30.964Z,4.00
2019-02-28T05:41:57.255Z,3.90
2019-02-28T05:44:25.513Z,4.00
2019-02-28T05:46:57.595Z,4.00
2019-02-28T05:49:22.583Z,3.90
2019-02-28T05:51:51.068Z,3.90
2019-02-28T05:54:19.346Z,3.90
2019-02-28T05:56:48.055Z,3.80
2019-02-28T05:59:17.128Z,3.80
2019-02-28T06:01:47.055Z,3.80
2019-02-28T06:04:14.547Z,4.20
2019-02-28T06:06:42.863Z,4.20
2019-02-28T06:09:13.686Z,4.40
2019-02-28T06:11:39.539Z,4.50
2019-02-28T06:14:07.906Z,4.70
2019-02-28T06:16:36.253Z,4.90
2019-02-28T06:19:08.118Z,5.10
2019-02-28T06:21:32.835Z,5.30
2019-02-28T06:24:01.127Z,5.30
2019-02-28T06:26:31.918Z,5.40
2019-02-28T06:28:58.575Z,5.60
2019-02-28T06:31:26.976Z,5.60
2019-02-28T06:33:55.328Z,5.70
2019-02-28T06:36:25.730Z,5.80
2019-02-28T06:38:54.554Z,6.10
2019-02-28T06:41:20.364Z,6.20
2019-02-28T06:43:50.243Z,6.30
2019-02-28T06:46:16.951Z,6.50
2019-02-28T06:48:46.008Z,6.60
2019-02-28T06:51:16.824Z,6.60
2019-02-28T06:53:42.755Z,6.70
2019-02-28T06:56:11.019Z,6.70
2019-02-28T06:58:39.300Z,6.90
2019-02-28T07:01:07.600Z,7.00
2019-02-28T07:03:38.811Z,7.10
2019-02-28T07:06:04.241Z,7.20
2019-02-28T07:08:32.520Z,7.30
2019-02-28T07:11:00.943Z,7.30
2019-02-28T07:13:29.197Z,7.40
2019-02-28T07:15:59.106Z,7.60
2019-02-28T07:18:26.522Z,7.80
2019-02-28T07:20:54.925Z,7.80
2019-02-28T07:23:23.204Z,7.90
2019-02-28T07:25:52.444Z,8.00
2019-02-28T07:28:19.908Z,8.10
2019-02-28T07:30:50.305Z,8.20
2019-02-28T07:33:16.491Z,8.20
2019-02-28T07:35:44.784Z,8.20
2019-02-28T07:38:13.058Z,8.40
2019-02-28T07:40:41.479Z,8.40
2019-02-28T07:43:13.041Z,8.70
2019-02-28T07:45:38.795Z,8.70
2019-02-28T07:48:07.048Z,8.80
2019-02-28T07:50:35.333Z,8.90
2019-02-28T07:53:05.554Z,8.90
2019-02-28T07:55:32.006Z,9.10
2019-02-28T07:58:00.376Z,9.50
2019-02-28T08:00:28.664Z,10.00
2019-02-28T08:02:57.035Z,10.60
2019-02-28T08:05:29.689Z,11.10
2019-02-28T08:07:53.639Z,11.30
2019-02-28T08:10:22.707Z,11.50
2019-02-28T08:12:51.051Z,11.70
2019-02-28T08:15:22.730Z,11.90
2019-02-28T08:17:50.363Z,12.30
2019-02-28T08:20:18.643Z,12.50
2019-02-28T08:22:47.024Z,12.70
2019-02-28T08:25:15.404Z,12.90
2019-02-28T08:27:43.779Z,13.30
2019-02-28T08:30:21.070Z,13.40
2019-02-28T08:32:49.457Z,14.00
2019-02-28T08:35:17.710Z,14.10
2019-02-28T08:37:46.010Z,14.30
2019-02-28T08:40:17.069Z,14.20
2019-02-28T08:42:45.340Z,14.30
2019-02-28T08:45:13.637Z,14.60
2019-02-28T08:47:42.706Z,14.80
2019-02-28T08:50:12.744Z,14.80
2019-02-28T08:52:42.241Z,15.20
2019-02-28T08:55:10.175Z,15.10
2019-02-28T08:57:38.476Z,15.40
2019-02-28T09:00:08.291Z,15.70
2019-02-28T09:02:37.372Z,15.90
2019-02-28T09:05:06.735Z,15.90
2019-02-28T09:07:34.118Z,16.00
2019-02-28T09:10:02.437Z,16.00
2019-02-28T09:12:33.277Z,16.30
2019-02-28T09:14:59.133Z,16.40
2019-02-28T09:17:27.542Z,16.60
2019-02-28T09:19:55.817Z,16.80
2019-02-28T09:22:27.478Z,17.20
2019-02-28T09:24:53.271Z,17.10
2019-02-28T09:27:21.580Z,17.10
2019-02-28T09:29:54.520Z,17.40
2019-02-28T09:32:18.199Z,17.50
2019-02-28T09:34:46.774Z,17.30
2019-02-28T09:37:15.075Z,17.20
2019-02-28T09:39:44.138Z,17.20
2019-02-28T09:42:15.705Z,17.20
2019-02-28T09:44:41.510Z,17.20
2019-02-28T09:47:11.768Z,17.20
2019-02-28T09:49:38.969Z,17.60
2019-02-28T09:52:07.406Z,17.60
2019-02-28T09:54:35.681Z,18.00
2019-02-28T09:57:03.966Z,17.70
2019-02-28T09:59:37.345Z,17.80
2019-02-28T10:02:01.635Z,17.60
2019-02-28T10:04:30.491Z,17.00
2019-02-28T10:06:57.328Z,16.80
2019-02-28T10:09:25.633Z,17.10
2019-02-28T10:11:54.696Z,17.10
2019-02-28T10:14:25.752Z,17.10
2019-02-28T10:16:52.632Z,17.20
2019-02-28T10:19:19.656Z,17.40
2019-02-28T10:21:51.863Z,17.80
2019-02-28T10:24:16.990Z,18.10
2019-02-28T10:26:48.175Z,18.10
2019-02-28T10:29:15.118Z,18.10
2019-02-28T10:31:44.155Z,18.30
2019-02-28T10:34:12.463Z,18.30
2019-02-28T10:36:40.824Z,17.90
2019-02-28T10:39:09.750Z,17.80
2019-02-28T10:41:37.571Z,17.70
2019-02-28T10:44:05.955Z,17.80
2019-02-28T10:46:36.027Z,18.30
2019-02-28T10:49:02.619Z,18.70
2019-02-28T10:51:30.892Z,18.50
2019-02-28T10:53:59.192Z,18.80
2019-02-28T10:56:31.747Z,18.90
2019-02-28T10:58:56.640Z,18.90
2019-02-28T11:01:24.926Z,18.60
2019-02-28T11:03:53.234Z,18.70
2019-02-28T11:06:21.534Z,19.30
2019-02-28T11:08:49.831Z,19.60
2019-02-28T11:11:18.134Z,19.50
2019-02-28T11:13:47.219Z,19.40
2019-02-28T11:16:15.496Z,19.30
2019-02-28T11:18:43.858Z,19.40
2019-02-28T11:21:12.151Z,19.60
2019-02-28T11:23:40.508Z,19.20
2019-02-28T11:26:09.528Z,18.90
2019-02-28T11:28:37.891Z,19.20
2019-02-28T11:31:06.183Z,19.20
2019-02-28T11:33:36.460Z,19.20
2019-02-28T11:36:03.515Z,19.20
2019-02-28T11:38:31.891Z,19.40
2019-02-28T11:41:00.211Z,19.30
2019-02-28T11:43:29.273Z,19.50
2019-02-28T11:46:01.020Z,19.50
2019-02-28T11:48:25.893Z,19.40
2019-02-28T11:50:54.249Z,19.40
2019-02-28T11:53:22.580Z,19.20
2019-02-28T11:55:53.360Z,18.70
2019-02-28T11:58:19.944Z,19.30
2019-02-28T12:00:48.315Z,19.20
2019-02-28T12:03:16.620Z,19.10
2019-02-28T12:05:50.083Z,19.50
2019-02-28T12:08:14.420Z,19.50
2019-02-28T12:10:43.489Z,19.30
2019-02-28T12:13:11.780Z,19.30
2019-02-28T12:15:40.940Z,19.90
2019-02-28T12:18:09.324Z,19.80
2019-02-28T12:20:37.695Z,19.60
2019-02-28T12:23:05.992Z,19.10
2019-02-28T12:25:34.271Z,18.90
2019-02-28T12:28:05.699Z,19.50
2019-02-28T12:30:31.002Z,20.00
2019-02-28T12:32:59.299Z,19.90
2019-02-28T12:35:27.683Z,19.70
2019-02-28T12:37:56.753Z,20.20
2019-02-28T12:40:28.758Z,20.20
2019-02-28T12:42:57.836Z,19.70
2019-02-28T12:45:29.152Z,19.70
2019-02-28T12:47:57.545Z,19.40
2019-02-28T12:50:29.283Z,19.30
2019-02-28T12:52:54.201Z,19.10
2019-02-28T12:55:22.580Z,19.40
2019-02-28T12:57:51.700Z,18.80
2019-02-28T13:00:23.297Z,18.00
2019-02-28T13:02:51.099Z,17.50
2019-02-28T13:05:19.393Z,17.30
2019-02-28T13:07:48.597Z,17.40
2019-02-28T13:10:17.690Z,17.90
2019-02-28T13:12:48.928Z,17.90
2019-02-28T13:15:15.037Z,17.70
2019-02-28T13:17:43.319Z,17.70
2019-02-28T13:20:13.181Z,17.60
2019-02-28T13:22:41.471Z,17.60
2019-02-28T13:25:11.770Z,17.70
2019-02-28T13:27:38.071Z,17.70
2019-02-28T13:30:10.640Z,17.90
2019-02-28T13:32:38.218Z,17.90
2019-02-28T13:35:07.491Z,18.10
2019-02-28T13:37:33.906Z,18.20
2019-02-28T13:40:04.349Z,18.40
2019-02-28T13:42:30.488Z,18.50
2019-02-28T13:44:59.545Z,18.40
2019-02-28T13:47:27.892Z,18.40
2019-02-28T13:49:56.163Z,18.20
2019-02-28T13:52:24.468Z,18.00
2019-02-28T13:54:52.766Z,17.80
2019-02-28T13:57:21.065Z,17.70
2019-02-28T13:59:50.216Z,17.90
2019-02-28T14:02:18.544Z,17.80
2019-02-28T14:04:47.405Z,17.90
2019-02-28T14:07:15.667Z,17.70
2019-02-28T14:09:43.951Z,17.70
2019-02-28T14:12:12.312Z,17.90
2019-02-28T14:14:42.415Z,17.90
2019-02-28T14:17:08.927Z,17.80
2019-02-28T14:19:37.223Z,17.70
2019-02-28T14:22:08.521Z,17.80
2019-02-28T14:24:33.989Z,18.00
2019-02-28T14:27:02.378Z,18.10
2019-02-28T14:29:30.654Z,18.10
2019-02-28T14:31:58.958Z,18.00
2019-02-28T14:34:28.012Z,17.60
2019-02-28T14:36:56.328Z,17.60
2019-02-28T14:39:25.489Z,17.90
2019-02-28T14:41:53.775Z,18.00
2019-02-28T14:44:22.079Z,18.20
2019-02-28T14:46:53.301Z,18.30
2019-02-28T14:49:19.007Z,18.30
2019-02-28T14:51:47.302Z,18.30
2019-02-28T14:54:16.373Z,18.10
2019-02-28T14:56:44.655Z,18.10
2019-02-28T14:59:12.966Z,18.00
2019-02-28T15:01:41.307Z,17.90
2019-02-28T15:04:09.608Z,17.90
2019-02-28T15:06:38.708Z,17.80
2019-02-28T15:09:07.048Z,17.80
2019-02-28T15:11:35.424Z,17.60
2019-02-28T15:14:05.658Z,17.60
2019-02-28T15:16:32.806Z,17.60
2019-02-28T15:19:01.108Z,17.50
2019-02-28T15:21:30.200Z,17.20
2019-02-28T15:23:58.472Z,17.20
2019-02-28T15:26:29.545Z,17.00
2019-02-28T15:28:56.663Z,17.00
2019-02-28T15:31:25.729Z,17.10
2019-02-28T15:33:54.036Z,17.20
2019-02-28T15:36:24.353Z,17.20
2019-02-28T15:38:51.367Z,17.20
2019-02-28T15:41:19.631Z,17.20
2019-02-28T15:43:50.307Z,17.10
2019-02-28T15:46:17.000Z,17.00
2019-02-28T15:48:45.378Z,16.90
2019-02-28T15:51:13.677Z,16.90
2019-02-28T15:53:41.983Z,16.80
2019-02-28T15:56:13.245Z,16.60
2019-02-28T15:58:41.429Z,16.50
2019-02-28T16:01:07.268Z,16.50
2019-02-28T16:03:35.575Z,16.40
2019-02-28T16:06:03.852Z,16.40
2019-02-28T16:08:33.015Z,16.30
2019-02-28T16:11:03.272Z,16.30
2019-02-28T16:13:30.380Z,16.20
2019-02-28T16:15:58.678Z,16.20
2019-02-28T16:18:26.938Z,16.20
2019-02-28T16:20:55.321Z,16.20
2019-02-28T16:23:27.587Z,16.10
2019-02-28T16:25:51.976Z,16.10
2019-02-28T16:28:20.278Z,16.00
2019-02-28T16:30:49.354Z,15.90
2019-02-28T16:33:20.900Z,15.90
2019-02-28T16:35:46.750Z,15.90
2019-02-28T16:38:15.111Z,15.80
2019-02-28T16:40:44.180Z,15.70
2019-02-28T16:43:12.472Z,15.70
2019-02-28T16:45:41.971Z,15.70
2019-02-28T16:48:10.102Z,15.70
2019-02-28T16:50:38.397Z,15.60
2019-02-28T16:53:06.696Z,15.50
2019-02-28T16:55:35.068Z,15.50
2019-02-28T16:58:03.451Z,15.50
2019-02-28T17:00:31.759Z,15.90
2019-02-28T17:03:04.061Z,16.10
2019-02-28T17:05:29.276Z,16.20
2019-02-28T17:07:57.691Z,16.20
2019-02-28T17:10:27.768Z,16.30
2019-02-28T17:12:59.596Z,16.10
2019-02-28T17:15:26.124Z,15.60
2019-02-28T17:17:55.197Z,15.10
2019-02-28T17:20:23.504Z,15.10
2019-02-28T17:22:51.780Z,15.00
2019-02-28T17:25:21.884Z,14.90
2019-02-28T17:27:52.017Z,14.80
2019-02-28T17:30:21.743Z,14.80
2019-02-28T17:32:50.773Z,14.70
2019-02-28T17:35:19.072Z,14.70
2019-02-28T17:37:48.132Z,14.60
2019-02-28T17:40:16.432Z,14.60
2019-02-28T17:42:46.399Z,14.60
2019-02-28T17:45:16.210Z,14.60
2019-02-28T17:47:44.857Z,14.60
2019-02-28T17:50:18.487Z,14.50
2019-02-28T17:52:53.299Z,14.50
2019-02-28T17:58:47.024Z,14.40
2019-02-28T18:01:39.084Z,14.40
2019-02-28T18:07:11.593Z,14.30
2019-02-28T18:09:49.484Z,14.20
2019-02-28T18:12:30.257Z,14.20
2019-02-28T18:15:08.958Z,14.20
2019-02-28T18:17:47.478Z,14.10
2019-02-28T18:20:52.332Z,14.20
2019-02-28T18:23:27.915Z,14.10
2019-02-28T18:28:58.119Z,14.10
2019-02-28T18:31:25.548Z,14.00
2019-02-28T18:33:54.578Z,13.90
2019-02-28T18:36:23.631Z,13.80
2019-02-28T18:38:51.923Z,13.80
2019-02-28T18:41:20.288Z,13.80
2019-02-28T18:43:48.588Z,13.80
2019-02-28T18:46:17.696Z,13.60
2019-02-28T18:48:46.771Z,13.60
2019-02-28T18:51:16.681Z,13.60
2019-02-28T18:53:43.355Z,13.60
2019-02-28T18:56:11.642Z,13.50
2019-02-28T18:58:39.946Z,13.50
2019-02-28T19:01:08.253Z,13.50
2019-02-28T19:03:37.322Z,13.40
2019-02-28T19:06:05.620Z,13.40
2019-02-28T19:08:33.934Z,13.40
2019-02-28T19:11:02.247Z,13.40
2019-02-28T19:13:31.348Z,13.20
2019-02-28T19:15:59.727Z,13.20
2019-02-28T19:18:28.107Z,13.20
2019-02-28T19:20:56.504Z,13.20
2019-02-28T19:23:24.784Z,13.20
2019-02-28T19:25:53.846Z,13.20
2019-02-28T19:28:22.147Z,13.20
2019-02-28T19:30:50.512Z,13.20
2019-02-28T19:33:18.892Z,13.00
2019-02-28T19:35:47.256Z,13.00
2019-02-28T19:38:15.635Z,13.00
2019-02-28T19:40:44.015Z,12.90
2019-02-28T19:43:12.387Z,12.90
2019-02-28T19:45:40.766Z,12.80
2019-02-28T19:48:09.085Z,12.80
2019-02-28T19:50:37.435Z,12.70
2019-02-28T19:53:05.800Z,12.60
2019-02-28T19:55:34.092Z,12.50
2019-02-28T19:58:02.483Z,12.60
2019-02-28T20:00:30.748Z,12.50
2019-02-28T20:02:59.062Z,12.40
2019-02-28T20:05:27.318Z,12.40
2019-02-28T20:07:56.379Z,12.30
2019-02-28T20:10:24.690Z,12.30
2019-02-28T20:12:53.747Z,12.30
2019-02-28T20:15:22.053Z,12.30
2019-02-28T20:17:51.228Z,12.20
2019-02-28T20:20:20.275Z,12.20
2019-02-28T20:22:48.568Z,12.20
2019-02-28T20:25:16.923Z,12.10
2019-02-28T20:27:45.266Z,12.00
2019-02-28T20:30:21.469Z,11.90
2019-02-28T20:32:49.779Z,11.90
2019-02-28T20:35:26.138Z,11.90
2019-02-28T20:37:47.143Z,11.80
2019-02-28T20:40:24.435Z,11.80
2019-02-28T20:42:52.728Z,11.80
2019-02-28T20:45:21.791Z,11.60
2019-02-28T20:47:50.084Z,11.60
2019-02-28T20:50:21.228Z,11.50
2019-02-28T20:52:49.499Z,11.30
2019-02-28T20:55:17.878Z,11.30
2019-02-28T20:57:46.175Z,11.30
2019-02-28T21:00:15.256Z,11.30
2019-02-28T21:02:43.563Z,11.30
2019-02-28T21:05:12.608Z,11.40
2019-02-28T21:07:40.903Z,11.30
2019-02-28T21:10:09.205Z,11.10
2019-02-28T21:12:37.508Z,10.90
2019-02-28T21:15:07.758Z,10.90
2019-02-28T21:17:36.131Z,10.80
2019-02-28T21:20:05.931Z,10.70
2019-02-28T21:22:34.331Z,10.60
2019-02-28T21:25:02.641Z,10.70
2019-02-28T21:27:30.908Z,10.60
2019-02-28T21:30:00.201Z,10.40
2019-02-28T21:32:28.450Z,10.40
2019-02-28T21:34:56.759Z,10.30
2019-02-28T21:37:26.232Z,10.30
2019-02-28T21:39:54.634Z,10.30
2019-02-28T21:42:23.750Z,10.40
2019-02-28T21:44:52.084Z,10.40
2019-02-28T21:47:20.498Z,10.30
2019-02-28T21:49:48.721Z,10.40
2019-02-28T21:52:17.113Z,10.40
2019-02-28T21:54:45.412Z,10.30
2019-02-28T21:57:14.477Z,10.30
2019-02-28T21:59:42.779Z,10.30
2019-02-28T22:02:11.843Z,10.20
2019-02-28T22:04:40.615Z,10.20
2019-02-28T22:07:09.023Z,10.20
2019-02-28T22:09:37.408Z,10.20
2019-02-28T22:12:05.683Z,10.20
2019-02-28T22:14:33.997Z,10.10
2019-02-28T22:17:03.064Z,10.10
2019-02-28T22:19:31.330Z,10.10
2019-02-28T22:21:59.695Z,10.20
2019-02-28T22:24:27.996Z,10.10
2019-02-28T22:26:57.164Z,10.10
2019-02-28T22:29:25.544Z,10.10
2019-02-28T22:31:56.286Z,10.20
2019-02-28T22:34:25.132Z,10.10
2019-02-28T22:36:53.419Z,10.20
2019-02-28T22:39:21.809Z,10.30
2019-02-28T22:41:50.196Z,10.50
2019-02-28T22:44:18.580Z,10.40
2019-02-28T22:46:46.888Z,10.40
2019-02-28T22:49:15.156Z,10.40
2019-02-28T22:51:44.227Z,10.40
2019-02-28T22:54:12.506Z,10.40
2019-02-28T22:56:40.799Z,10.30
2019-02-28T22:59:09.857Z,10.30
2019-02-28T23:01:38.155Z,10.30
2019-02-28T23:04:06.518Z,10.30
2019-02-28T23:06:34.897Z,10.30
2019-02-28T23:09:03.181Z,10.30
2019-02-28T23:11:31.480Z,10.30
2019-02-28T23:14:00.544Z,10.30
2019-02-28T23:16:28.915Z,10.30
2019-02-28T23:18:57.291Z,10.30
2019-02-28T23:21:25.577Z,10.40
2019-02-28T23:23:53.943Z,10.30
2019-02-28T23:26:24.028Z,10.30
2019-02-28T23:28:52.342Z,10.30
2019-02-28T23:31:35.464Z,10.30
2019-02-28T23:34:06.683Z,10.30
2019-02-28T23:36:34.958Z,10.30
2019-02-28T23:39:03.257Z,10.20
2019-02-28T23:41:31.548Z,10.30
2019-02-28T23:43:59.848Z,10.30
2019-02-28T23:46:28.120Z,10.50
2019-02-28T23:48:57.181Z,10.40
2019-02-28T23:51:25.468Z,10.30
2019-02-28T23:53:53.767Z,10.30
2019-02-28T23:56:22.864Z,10.20
2019-02-28T23:58:51.103Z,10.20
